createdAt,value
2023-12-03T00:00:14.778Z,101200.41
2023-12-03T00:02:43.258Z,101201.22
2023-12-03T00:05:12.420Z,101201.75
2023-12-03T00:07:41.520Z,101209.25
2023-12-03T00:10:09.903Z,101205.41
2023-12-03T00:12:40.155Z,101210.66
2023-12-03T00:15:09.119Z,101208.06
2023-12-03T00:17:36.870Z,101210.00
2023-12-03T00:20:07.364Z,101214.22
2023-12-03T00:22:35.167Z,101219.00
2023-12-03T00:25:06.368Z,101215.91
2023-12-03T00:27:33.971Z,101218.66
2023-12-03T00:30:02.288Z,101220.44
2023-12-03T00:32:30.063Z,101221.72
2023-12-03T00:34:57.773Z,101218.38
2023-12-03T00:37:25.485Z,101224.41
2023-12-03T00:39:53.680Z,101226.16
2023-12-03T00:42:22.825Z,101220.97
2023-12-03T00:44:50.312Z,101235.06
2023-12-03T00:47:17.819Z,101239.59
2023-12-03T00:49:45.811Z,101235.63
2023-12-03T00:52:13.549Z,101233.56
2023-12-03T00:54:41.544Z,101239.06
2023-12-03T00:57:09.207Z,101249.69
2023-12-03T00:59:38.231Z,101244.38
2023-12-03T01:02:06.181Z,101252.44
2023-12-03T01:04:33.850Z,101253.97
2023-12-03T01:07:01.414Z,101258.19
2023-12-03T01:09:31.718Z,101263.94
2023-12-03T01:11:59.484Z,101270.00
2023-12-03T01:14:27.258Z,101264.88
2023-12-03T01:16:56.118Z,101272.97
2023-12-03T01:19:24.077Z,101277.63
2023-12-03T01:21:51.977Z,101274.97
2023-12-03T01:24:19.534Z,101273.22
2023-12-03T01:26:47.113Z,101281.06
2023-12-03T01:29:14.678Z,101279.69
2023-12-03T01:31:42.366Z,101294.41
2023-12-03T01:34:11.371Z,101289.06
2023-12-03T01:36:39.123Z,101302.19
2023-12-03T01:39:10.064Z,101300.50
2023-12-03T01:41:37.853Z,101306.44
2023-12-03T01:44:05.390Z,101298.63
2023-12-03T01:46:32.922Z,101302.03
2023-12-03T01:49:00.729Z,101302.03
2023-12-03T01:51:30.013Z,101306.22
2023-12-03T01:53:57.973Z,101309.09
2023-12-03T01:56:25.743Z,101314.16
2023-12-03T01:58:54.057Z,101314.38
2023-12-03T02:01:21.638Z,101307.38
2023-12-03T02:03:49.410Z,101323.72
2023-12-03T02:06:17.267Z,101322.66
2023-12-03T02:08:46.219Z,101331.38
2023-12-03T02:11:14.483Z,101332.97
2023-12-03T02:13:42.105Z,101341.22
2023-12-03T02:16:10.571Z,101346.88
2023-12-03T02:18:38.258Z,101348.03
2023-12-03T02:21:06.779Z,101345.59
2023-12-03T02:23:35.600Z,101351.00
2023-12-03T02:26:03.800Z,101349.06
2023-12-03T02:28:31.339Z,101353.31
2023-12-03T02:30:58.869Z,101353.78
2023-12-03T02:33:26.521Z,101354.16
2023-12-03T02:35:54.162Z,101365.13
2023-12-03T02:38:21.676Z,101357.09
2023-12-03T02:40:50.492Z,101360.13
2023-12-03T02:43:17.989Z,101355.59
2023-12-03T02:45:45.540Z,101362.63
2023-12-03T02:48:13.292Z,101345.28
2023-12-03T02:50:40.855Z,101346.09
2023-12-03T02:53:08.379Z,101358.53
2023-12-03T02:55:35.884Z,101370.50
2023-12-03T02:58:04.691Z,101366.50
2023-12-03T03:00:32.196Z,101360.31
2023-12-03T03:02:59.970Z,101378.94
2023-12-03T03:05:27.499Z,101374.72
2023-12-03T03:07:55.148Z,101374.84
2023-12-03T03:10:22.611Z,101373.13
2023-12-03T03:12:50.202Z,101372.63
2023-12-03T03:15:19.072Z,101369.78
2023-12-03T03:17:46.635Z,101378.94
2023-12-03T03:20:14.210Z,101375.84
2023-12-03T03:22:41.728Z,101372.38
2023-12-03T03:25:10.074Z,101383.13
2023-12-03T03:27:37.572Z,101383.97
2023-12-03T03:30:07.745Z,101379.75
2023-12-03T03:32:36.866Z,101378.59
2023-12-03T03:35:04.914Z,101389.41
2023-12-03T03:37:32.527Z,101391.19
2023-12-03T03:40:00.150Z,101391.88
2023-12-03T03:42:27.784Z,101392.38
2023-12-03T03:44:55.590Z,101406.34
2023-12-03T03:47:23.183Z,101413.09
2023-12-03T03:49:52.004Z,101405.31
2023-12-03T03:52:19.528Z,101407.63
2023-12-03T03:54:47.126Z,101413.25
2023-12-03T03:57:14.694Z,101405.03
2023-12-03T03:59:44.613Z,101405.75
2023-12-03T04:02:12.106Z,101400.38
2023-12-03T04:04:39.666Z,101399.66
2023-12-03T04:07:11.138Z,101400.69
2023-12-03T04:09:38.729Z,101396.28
2023-12-03T04:12:06.595Z,101391.13
2023-12-03T04:14:34.261Z,101382.38
2023-12-03T04:17:01.884Z,101395.41
2023-12-03T04:19:29.503Z,101391.00
2023-12-03T04:21:57.095Z,101386.59
2023-12-03T04:24:25.945Z,101398.84
2023-12-03T04:26:53.542Z,101397.78
2023-12-03T04:29:21.025Z,101400.16
2023-12-03T04:31:49.331Z,101407.31
2023-12-03T04:34:16.877Z,101409.94
2023-12-03T04:36:44.828Z,101406.69
2023-12-03T04:39:12.398Z,101406.56
2023-12-03T04:41:41.335Z,101408.41
2023-12-03T04:44:08.822Z,101412.94
2023-12-03T04:46:36.409Z,101413.72
2023-12-03T04:49:04.022Z,101412.75
2023-12-03T04:51:31.674Z,101417.78
2023-12-03T04:53:59.213Z,101415.13
2023-12-03T04:56:26.865Z,101422.97
2023-12-03T04:58:55.697Z,101428.50
2023-12-03T05:01:23.416Z,101428.66
2023-12-03T05:03:51.426Z,101435.47
2023-12-03T05:06:19.182Z,101435.56
2023-12-03T05:08:46.801Z,101427.69
2023-12-03T05:11:14.355Z,101429.34
2023-12-03T05:13:41.914Z,101431.00
2023-12-03T05:16:11.924Z,101433.91
2023-12-03T05:18:39.755Z,101427.25
2023-12-03T05:21:09.003Z,101438.22
2023-12-03T05:23:36.528Z,101437.28
2023-12-03T05:26:04.423Z,101440.97
2023-12-03T05:28:31.990Z,101443.56
2023-12-03T05:30:59.509Z,101443.63
2023-12-03T05:33:28.408Z,101450.13
2023-12-03T05:35:54.954Z,101449.28
2023-12-03T05:38:22.487Z,101453.75
2023-12-03T05:40:50.036Z,101453.75
2023-12-03T05:43:17.839Z,101450.47
2023-12-03T05:45:46.060Z,101460.88
2023-12-03T05:48:13.951Z,101461.28
2023-12-03T05:50:43.088Z,101461.97
2023-12-03T05:53:10.595Z,101459.38
2023-12-03T05:55:38.156Z,101466.25
2023-12-03T05:58:06.325Z,101462.88
2023-12-03T06:00:34.010Z,101471.44
2023-12-03T06:03:01.623Z,101465.47
2023-12-03T06:05:29.201Z,101469.88
2023-12-03T06:07:58.077Z,101475.91
2023-12-03T06:10:25.643Z,101473.56
2023-12-03T06:12:53.142Z,101476.28
2023-12-03T06:15:20.760Z,101478.03
2023-12-03T06:17:48.308Z,101477.94
2023-12-03T06:20:15.965Z,101485.59
2023-12-03T06:22:43.504Z,101474.63
2023-12-03T06:25:12.359Z,101481.53
2023-12-03T06:27:41.316Z,101484.28
2023-12-03T06:30:09.863Z,101490.25
2023-12-03T06:32:37.501Z,101491.03
2023-12-03T06:35:05.766Z,101492.53
2023-12-03T06:37:33.299Z,101491.66
2023-12-03T06:40:00.858Z,101503.41
2023-12-03T06:42:29.780Z,101503.03
2023-12-03T06:44:57.334Z,101512.69
2023-12-03T06:47:25.717Z,101511.81
2023-12-03T06:49:53.409Z,101516.94
2023-12-03T06:52:20.961Z,101515.22
2023-12-03T06:54:48.651Z,101526.31
2023-12-03T06:57:16.299Z,101522.75
2023-12-03T06:59:45.326Z,101527.75
2023-12-03T07:02:13.367Z,101527.97
2023-12-03T07:04:41.756Z,101537.56
2023-12-03T07:07:09.530Z,101539.44
2023-12-03T07:09:40.015Z,101542.88
2023-12-03T07:12:09.318Z,101543.19
2023-12-03T07:14:38.221Z,101543.13
2023-12-03T07:17:10.243Z,101547.09
2023-12-03T07:19:39.122Z,101556.66
2023-12-03T07:22:07.439Z,101551.53
2023-12-03T07:24:35.905Z,101547.16
2023-12-03T07:27:04.361Z,101553.19
2023-12-03T07:29:32.664Z,101568.69
2023-12-03T07:31:59.640Z,101567.09
2023-12-03T07:34:29.398Z,101559.09
2023-12-03T07:36:57.252Z,101559.25
2023-12-03T07:39:25.895Z,101564.44
2023-12-03T07:41:54.981Z,101563.63
2023-12-03T07:44:38.501Z,101577.34
2023-12-03T07:47:06.330Z,101576.53
2023-12-03T07:49:53.262Z,101580.47
2023-12-03T07:52:22.080Z,101582.44
2023-12-03T07:54:50.668Z,101582.59
2023-12-03T07:57:19.333Z,101591.91
2023-12-03T08:02:40.213Z,101579.84
2023-12-03T08:07:56.397Z,101592.81
2023-12-03T08:10:24.094Z,101587.84
2023-12-03T08:12:51.680Z,101594.84
2023-12-03T08:15:19.219Z,101602.00
2023-12-03T08:17:57.301Z,101601.16
2023-12-03T08:20:31.561Z,101602.56
2023-12-03T08:23:00.326Z,101595.81
2023-12-03T08:25:39.054Z,101600.84
2023-12-03T08:28:07.349Z,101599.13
2023-12-03T08:30:35.372Z,101609.22
2023-12-03T08:33:10.432Z,101604.09
2023-12-03T08:35:41.201Z,101611.13
2023-12-03T08:38:10.020Z,101604.19
2023-12-03T08:40:39.671Z,101606.66
2023-12-03T08:43:09.239Z,101604.28
2023-12-03T08:45:37.547Z,101609.16
2023-12-03T08:48:10.245Z,101601.41
2023-12-03T08:50:52.658Z,101606.25
2023-12-03T08:53:20.590Z,101611.31
2023-12-03T08:56:04.510Z,101612.91
2023-12-03T08:58:47.018Z,101620.59
2023-12-03T09:01:17.473Z,101620.25
2023-12-03T09:03:45.211Z,101615.84
2023-12-03T09:06:17.131Z,101615.59
2023-12-03T09:08:44.915Z,101622.00
2023-12-03T09:11:15.230Z,101627.69
2023-12-03T09:13:53.593Z,101621.72
2023-12-03T09:16:23.221Z,101621.28
2023-12-03T09:18:52.215Z,101636.69
2023-12-03T09:21:22.590Z,101639.13
2023-12-03T09:26:32.251Z,101644.75
2023-12-03T09:28:59.957Z,101646.44
2023-12-03T09:31:30.690Z,101650.00
2023-12-03T09:34:00.923Z,101653.56
2023-12-03T09:36:30.234Z,101648.31
2023-12-03T09:38:58.425Z,101653.88
2023-12-03T09:41:27.057Z,101647.31
2023-12-03T09:44:00.760Z,101656.59
2023-12-03T09:46:33.024Z,101660.84
2023-12-03T09:49:02.756Z,101660.13
2023-12-03T09:51:32.270Z,101661.88
2023-12-03T09:54:04.152Z,101661.94
2023-12-03T09:59:23.935Z,101668.13
2023-12-03T10:01:52.878Z,101663.75
2023-12-03T10:13:24.237Z,101655.56
2023-12-03T10:16:01.080Z,101648.72
2023-12-03T10:18:32.736Z,101669.91
2023-12-03T10:24:20.078Z,101656.31
2023-12-03T10:27:05.687Z,101671.94
2023-12-03T10:29:37.672Z,101675.31
2023-12-03T10:38:04.349Z,101671.78
2023-12-03T10:43:36.332Z,101673.94
2023-12-03T10:52:11.103Z,101674.19
2023-12-03T10:54:42.300Z,101676.91
2023-12-03T11:03:58.131Z,101677.25
2023-12-03T11:06:27.389Z,101691.06
2023-12-03T11:08:57.160Z,101688.31
2023-12-03T11:11:39.000Z,101694.09
2023-12-03T11:14:44.842Z,101697.44
2023-12-03T11:17:29.064Z,101692.34
2023-12-03T11:45:16.737Z,101714.84
2023-12-03T11:48:05.095Z,101722.31
2023-12-03T11:50:33.929Z,101720.63
2023-12-03T11:53:01.766Z,101728.22
2023-12-03T11:55:34.043Z,101726.34
2023-12-03T11:58:03.068Z,101725.34
2023-12-03T12:00:30.895Z,101733.81
2023-12-03T12:03:01.012Z,101734.53
2023-12-03T12:05:28.828Z,101732.56
2023-12-03T12:08:02.341Z,101736.56
2023-12-03T12:10:31.474Z,101737.91
2023-12-03T12:13:01.163Z,101739.94
2023-12-03T12:15:28.958Z,101740.69
2023-12-03T12:17:57.107Z,101739.69
2023-12-03T12:20:27.792Z,101741.34
2023-12-03T12:22:56.471Z,101736.50
2023-12-03T12:25:27.565Z,101749.44
2023-12-03T12:27:56.137Z,101747.06
2023-12-03T12:30:33.958Z,101746.28
2023-12-03T12:33:05.089Z,101736.88
2023-12-03T12:35:34.972Z,101736.41
2023-12-03T12:38:03.998Z,101742.59
2023-12-03T12:40:32.991Z,101747.03
2023-12-03T12:43:06.595Z,101755.88
2023-12-03T12:45:34.789Z,101746.53
2023-12-03T12:48:03.812Z,101750.06
2023-12-03T12:50:37.261Z,101746.41
2023-12-03T12:53:07.680Z,101744.94
2023-12-03T12:55:37.061Z,101751.06
2023-12-03T12:58:06.320Z,101750.34
2023-12-03T13:00:35.927Z,101750.38
2023-12-03T13:03:04.327Z,101746.19
2023-12-03T13:05:32.197Z,101744.38
2023-12-03T13:08:01.276Z,101744.31
2023-12-03T13:10:29.017Z,101745.59
2023-12-03T13:12:57.045Z,101754.41
2023-12-03T13:15:24.756Z,101739.50
2023-12-03T13:17:54.889Z,101740.09
2023-12-03T13:20:23.231Z,101737.50
2023-12-03T13:22:51.501Z,101730.59
2023-12-03T13:25:21.444Z,101738.34
2023-12-03T13:27:49.196Z,101737.56
2023-12-03T13:30:17.132Z,101741.38
2023-12-03T13:32:46.123Z,101751.88
2023-12-03T13:35:14.617Z,101745.75
2023-12-03T13:37:45.041Z,101744.19
2023-12-03T13:40:13.235Z,101753.59
2023-12-03T13:42:44.550Z,101759.56
2023-12-03T13:45:12.394Z,101753.94
2023-12-03T13:47:40.250Z,101763.56
2023-12-03T13:50:09.268Z,101764.44
2023-12-03T13:52:37.030Z,101768.91
2023-12-03T13:55:06.003Z,101769.59
2023-12-03T13:57:34.662Z,101774.06
2023-12-03T14:00:05.352Z,101779.25
2023-12-03T14:02:42.002Z,101779.47
2023-12-03T14:05:20.752Z,101776.25
2023-12-03T14:07:54.088Z,101764.03
2023-12-03T14:10:23.412Z,101776.06
2023-12-03T14:12:51.229Z,101767.31
2023-12-03T14:15:20.445Z,101774.38
2023-12-03T14:17:49.486Z,101784.13
2023-12-03T14:20:29.457Z,101788.44
2023-12-03T14:22:58.623Z,101786.31
2023-12-03T14:25:27.838Z,101783.81
2023-12-03T14:27:55.665Z,101790.66
2023-12-03T14:30:24.684Z,101788.78
2023-12-03T14:32:52.373Z,101790.03
2023-12-03T14:35:20.100Z,101797.03
2023-12-03T14:37:47.729Z,101797.16
2023-12-03T14:40:17.132Z,101795.31
2023-12-03T14:42:45.229Z,101797.38
2023-12-03T14:45:13.419Z,101794.72
2023-12-03T14:47:42.759Z,101805.16
2023-12-03T14:50:10.814Z,101807.25
2023-12-03T14:52:38.727Z,101808.28
2023-12-03T14:55:07.793Z,101804.66
2023-12-03T14:57:35.653Z,101809.84
2023-12-03T15:00:08.542Z,101815.81
2023-12-03T15:02:36.530Z,101817.59
2023-12-03T15:05:06.844Z,101819.25
2023-12-03T15:07:39.071Z,101822.91
2023-12-03T15:10:07.554Z,101818.59
2023-12-03T15:12:36.580Z,101824.63
2023-12-03T15:15:05.042Z,101832.50
2023-12-03T15:17:32.874Z,101836.81
2023-12-03T15:20:00.847Z,101839.41
2023-12-03T15:22:30.122Z,101844.31
2023-12-03T15:24:57.884Z,101841.91
2023-12-03T15:27:25.780Z,101843.72
2023-12-03T15:29:53.629Z,101838.59
2023-12-03T15:32:21.274Z,101832.66
2023-12-03T15:34:49.014Z,101840.28
2023-12-03T15:37:16.770Z,101835.16
2023-12-03T15:39:45.861Z,101829.06
2023-12-03T15:42:13.387Z,101833.50
2023-12-03T15:44:41.058Z,101837.84
2023-12-03T15:47:08.609Z,101845.66
2023-12-03T15:49:36.546Z,101845.78
2023-12-03T15:52:04.447Z,101838.91
2023-12-03T15:54:32.468Z,101844.19
2023-12-03T15:57:01.836Z,101852.56
2023-12-03T15:59:29.493Z,101845.06
2023-12-03T16:01:57.437Z,101843.34
2023-12-03T16:04:25.405Z,101840.84
2023-12-03T16:06:53.276Z,101845.22
2023-12-03T16:09:21.267Z,101844.63
2023-12-03T16:11:50.336Z,101858.44
2023-12-03T16:14:19.269Z,101851.34
2023-12-03T16:16:47.082Z,101859.13
2023-12-03T16:19:14.841Z,101859.97
2023-12-03T16:21:42.733Z,101863.47
2023-12-03T16:24:12.953Z,101861.72
2023-12-03T16:26:41.350Z,101858.06
2023-12-03T16:29:09.046Z,101865.19
2023-12-03T16:31:37.864Z,101860.97
2023-12-03T16:34:05.796Z,101874.03
2023-12-03T16:36:34.201Z,101856.91
2023-12-03T16:39:01.800Z,101863.09
2023-12-03T16:41:29.580Z,101874.38
2023-12-03T16:43:57.287Z,101871.78
2023-12-03T16:46:24.892Z,101861.41
2023-12-03T16:48:56.292Z,101851.84
2023-12-03T16:51:25.213Z,101854.56
2023-12-03T16:53:52.916Z,101858.91
2023-12-03T16:56:20.640Z,101853.78
2023-12-03T16:58:48.183Z,101862.53
2023-12-03T17:01:15.766Z,101855.50
2023-12-03T17:03:45.105Z,101866.66
2023-12-03T17:06:14.915Z,101861.06
2023-12-03T17:08:42.648Z,101869.81
2023-12-03T17:11:10.264Z,101872.44
2023-12-03T17:13:38.356Z,101880.38
2023-12-03T17:16:07.901Z,101869.03
2023-12-03T17:18:35.599Z,101869.19
2023-12-03T17:21:03.229Z,101870.13
2023-12-03T17:23:32.387Z,101859.56
2023-12-03T17:26:00.018Z,101872.72
2023-12-03T17:28:27.682Z,101870.09
2023-12-03T17:30:55.687Z,101873.69
2023-12-03T17:33:26.911Z,101862.53
2023-12-03T17:35:55.248Z,101878.00
2023-12-03T17:38:23.090Z,101887.47
2023-12-03T17:40:51.945Z,101870.91
2023-12-03T17:43:19.608Z,101871.16
2023-12-03T17:45:47.891Z,101887.53
2023-12-03T17:48:15.571Z,101881.38
2023-12-03T17:50:43.204Z,101884.88
2023-12-03T17:53:10.816Z,101873.56
2023-12-03T17:55:38.334Z,101875.34
2023-12-03T17:58:07.290Z,101876.06
2023-12-03T18:00:35.159Z,101890.72
2023-12-03T18:03:04.730Z,101875.41
2023-12-03T18:05:32.301Z,101884.94
2023-12-03T18:08:00.098Z,101884.13
2023-12-03T18:10:27.651Z,101884.00
2023-12-03T18:12:55.255Z,101877.19
2023-12-03T18:15:24.709Z,101880.59
2023-12-03T18:17:54.217Z,101879.88
2023-12-03T18:20:22.465Z,101885.84
2023-12-03T18:22:50.073Z,101884.06
2023-12-03T18:25:17.629Z,101879.84
2023-12-03T18:27:45.201Z,101881.53
2023-12-03T18:30:13.537Z,101879.97
2023-12-03T18:32:42.446Z,101881.59
2023-12-03T18:35:10.693Z,101887.59
2023-12-03T18:37:38.313Z,101891.09
2023-12-03T18:40:07.654Z,101885.22
2023-12-03T18:42:35.307Z,101884.47
2023-12-03T18:45:04.238Z,101888.91
2023-12-03T18:47:31.829Z,101888.03
2023-12-03T18:50:06.362Z,101876.75
2023-12-03T18:52:34.952Z,101881.22
2023-12-03T18:55:06.554Z,101876.28
2023-12-03T18:57:34.336Z,101885.06
2023-12-03T19:00:01.999Z,101872.22
2023-12-03T19:02:29.692Z,101874.81
2023-12-03T19:04:57.621Z,101874.94
2023-12-03T19:07:27.606Z,101880.38
2023-12-03T19:09:55.502Z,101870.06
2023-12-03T19:12:23.122Z,101874.25
2023-12-03T19:14:50.774Z,101871.84
2023-12-03T19:17:20.294Z,101870.91
2023-12-03T19:19:47.901Z,101878.53
2023-12-03T19:22:15.624Z,101882.84
2023-12-03T19:24:44.718Z,101882.00
2023-12-03T19:27:12.344Z,101885.88
2023-12-03T19:29:39.877Z,101880.88
2023-12-03T19:32:08.260Z,101881.63
2023-12-03T19:34:36.147Z,101883.19
2023-12-03T19:37:03.763Z,101885.56
2023-12-03T19:39:33.766Z,101884.84
2023-12-03T19:42:02.981Z,101886.59
2023-12-03T19:44:32.162Z,101895.16
2023-12-03T19:46:59.756Z,101897.66
2023-12-03T19:49:29.182Z,101904.53
2023-12-03T19:51:57.654Z,101903.59
2023-12-03T19:54:25.390Z,101901.91
2023-12-03T19:56:54.134Z,101886.28
2023-12-03T19:59:23.080Z,101891.13
2023-12-03T20:01:50.737Z,101881.69
2023-12-03T20:04:18.395Z,101892.22
2023-12-03T20:06:45.958Z,101886.22
2023-12-03T20:09:13.977Z,101879.16
2023-12-03T20:11:41.527Z,101885.28
2023-12-03T20:14:10.367Z,101886.28
2023-12-03T20:16:39.205Z,101885.88
2023-12-03T20:19:07.259Z,101875.84
2023-12-03T20:21:35.547Z,101884.44
2023-12-03T20:24:03.422Z,101878.66
2023-12-03T20:26:30.996Z,101874.44
2023-12-03T20:29:00.432Z,101879.50
2023-12-03T20:31:30.790Z,101876.81
2023-12-03T20:33:59.701Z,101876.88
2023-12-03T20:36:27.406Z,101878.03
2023-12-03T20:38:55.961Z,101874.88
2023-12-03T20:41:24.942Z,101878.41
2023-12-03T20:43:52.858Z,101882.69
2023-12-03T20:46:20.779Z,101868.75
2023-12-03T20:48:48.429Z,101869.91
2023-12-03T20:51:17.389Z,101865.53
2023-12-03T20:53:44.921Z,101878.41
2023-12-03T20:56:12.737Z,101872.28
2023-12-03T20:58:40.622Z,101875.50
2023-12-03T21:01:13.193Z,101865.88
2023-12-03T21:03:40.866Z,101859.78
2023-12-03T21:06:09.499Z,101859.63
2023-12-03T21:08:38.467Z,101869.75
2023-12-03T21:11:06.749Z,101859.56
2023-12-03T21:13:34.337Z,101856.22
2023-12-03T21:16:03.430Z,101858.03
2023-12-03T21:18:31.589Z,101851.97
2023-12-03T21:20:59.230Z,101857.16
2023-12-03T21:23:26.742Z,101860.44
2023-12-03T21:25:55.552Z,101862.97
2023-12-03T21:28:23.864Z,101870.06
2023-12-03T21:30:51.820Z,101867.69
2023-12-03T21:33:19.533Z,101870.25
2023-12-03T21:35:47.240Z,101859.91
2023-12-03T21:38:14.970Z,101861.56
2023-12-03T21:40:43.719Z,101857.09
2023-12-03T21:43:12.915Z,101844.16
2023-12-03T21:45:40.449Z,101844.84
2023-12-03T21:48:08.115Z,101841.25
2023-12-03T21:50:35.792Z,101843.94
2023-12-03T21:53:03.520Z,101838.03
2023-12-03T21:55:31.045Z,101841.50
2023-12-03T21:57:58.619Z,101833.91
2023-12-03T22:00:27.625Z,101835.53
2023-12-03T22:02:55.151Z,101846.00
2023-12-03T22:05:22.689Z,101837.34
2023-12-03T22:07:50.382Z,101832.41
2023-12-03T22:10:17.958Z,101833.34
2023-12-03T22:12:45.535Z,101836.06
2023-12-03T22:15:13.439Z,101835.28
2023-12-03T22:17:42.417Z,101839.63
2023-12-03T22:20:10.885Z,101837.19
2023-12-03T22:22:38.445Z,101831.25
2023-12-03T22:25:07.059Z,101828.88
2023-12-03T22:27:34.829Z,101826.41
2023-12-03T22:30:11.223Z,101830.66
2023-12-03T22:32:45.408Z,101841.72
2023-12-03T22:35:15.152Z,101827.00
2023-12-03T22:37:42.772Z,101841.66
2023-12-03T22:40:11.330Z,101834.03
2023-12-03T22:42:38.960Z,101828.13
2023-12-03T22:45:08.015Z,101827.16
2023-12-03T22:47:35.636Z,101831.50
2023-12-03T22:50:05.233Z,101822.88
2023-12-03T22:52:32.780Z,101827.34
2023-12-03T22:55:00.381Z,101820.53
2023-12-03T22:57:28.052Z,101821.34
2023-12-03T22:59:55.699Z,101820.50
2023-12-03T23:02:23.303Z,101825.59
2023-12-03T23:04:50.909Z,101819.53
2023-12-03T23:07:19.848Z,101812.44
2023-12-03T23:09:47.480Z,101810.75
2023-12-03T23:12:15.032Z,101805.56
2023-12-03T23:14:42.598Z,101812.44
2023-12-03T23:17:10.087Z,101815.16
2023-12-03T23:19:37.719Z,101801.38
2023-12-03T23:22:05.721Z,101803.22
2023-12-03T23:24:34.683Z,101812.59
2023-12-03T23:27:09.731Z,101807.59
2023-12-03T23:29:42.316Z,101810.31
2023-12-03T23:32:10.775Z,101803.53
2023-12-03T23:34:39.739Z,101796.59
2023-12-03T23:37:07.605Z,101786.25
2023-12-03T23:39:37.574Z,101787.03
2023-12-03T23:42:05.555Z,101790.53
2023-12-03T23:44:33.122Z,101781.06
2023-12-03T23:47:00.770Z,101791.44
2023-12-03T23:49:28.545Z,101797.53
2023-12-03T23:51:56.220Z,101789.81
2023-12-03T23:54:23.820Z,101776.06
2023-12-03T23:56:52.723Z,101775.88
2023-12-03T23:59:20.285Z,101769.06
